sensor_id;sensor_type;location;lat;lon;timestamp;pressure;altitude;pressure_sealevel;temperature;humidity
52975;BME280;38839;45.186;5.720;2023-04-06T00:01:06;99409.81;;;7.38;47.46
52975;BME280;38839;45.186;5.720;2023-04-06T00:03:31;99416.72;;;7.37;47.55
52975;BME280;38839;45.186;5.720;2023-04-06T00:05:56;99414.09;;;7.33;47.73
52975;BME280;38839;45.186;5.720;2023-04-06T00:08:22;99410.53;;;7.28;48.02
52975;BME280;38839;45.186;5.720;2023-04-06T00:10:48;99412.13;;;7.16;49.35
52975;BME280;38839;45.186;5.720;2023-04-06T00:13:14;99417.16;;;7.07;51.01
52975;BME280;38839;45.186;5.720;2023-04-06T00:15:39;99421.44;;;7.03;51.05
52975;BME280;38839;45.186;5.720;2023-04-06T00:18:05;99418.81;;;7.02;51.70
52975;BME280;38839;45.186;5.720;2023-04-06T00:20:31;99422.25;;;7.01;51.74
52975;BME280;38839;45.186;5.720;2023-04-06T00:22:56;99429.13;;;6.99;51.60
52975;BME280;38839;45.186;5.720;2023-04-06T00:25:22;99418.75;;;6.99;51.77
52975;BME280;38839;45.186;5.720;2023-04-06T00:27:47;99418.78;;;7.00;51.59
52975;BME280;38839;45.186;5.720;2023-04-06T00:30:13;99418.75;;;6.99;51.66
52975;BME280;38839;45.186;5.720;2023-04-06T00:32:38;99417.81;;;6.94;51.51
52975;BME280;38839;45.186;5.720;2023-04-06T00:35:04;99421.16;;;6.85;51.48
52975;BME280;38839;45.186;5.720;2023-04-06T00:37:30;99416.75;;;6.82;51.55
52975;BME280;38839;45.186;5.720;2023-04-06T00:39:58;99412.38;;;6.78;51.66
52975;BME280;38839;45.186;5.720;2023-04-06T00:42:24;99414.88;;;6.72;51.45
52975;BME280;38839;45.186;5.720;2023-04-06T00:44:57;99420.84;;;6.67;51.69
52975;BME280;38839;45.186;5.720;2023-04-06T00:47:24;99411.25;;;6.61;51.81
52975;BME280;38839;45.186;5.720;2023-04-06T00:49:56;99406.13;;;6.65;52.08
52975;BME280;38839;45.186;5.720;2023-04-06T00:52:22;99406.09;;;6.64;51.80
52975;BME280;38839;45.186;5.720;2023-04-06T00:54:48;99407.75;;;6.59;52.05
52975;BME280;38839;45.186;5.720;2023-04-06T00:57:14;99404.22;;;6.55;52.24
52975;BME280;38839;45.186;5.720;2023-04-06T00:59:40;99407.69;;;6.56;52.47
52975;BME280;38839;45.186;5.720;2023-04-06T01:02:06;99404.19;;;6.54;52.76
52975;BME280;38839;45.186;5.720;2023-04-06T01:04:32;99411.06;;;6.52;52.98
52975;BME280;38839;45.186;5.720;2023-04-06T01:06:58;99402.34;;;6.47;52.83
52975;BME280;38839;45.186;5.720;2023-04-06T01:09:24;99402.28;;;6.43;53.15
52975;BME280;38839;45.186;5.720;2023-04-06T01:11:49;99401.31;;;6.37;53.17
52975;BME280;38839;45.186;5.720;2023-04-06T01:14:15;99392.50;;;6.27;53.39
52975;BME280;38839;45.186;5.720;2023-04-06T01:16:41;99400.16;;;6.21;53.41
52975;BME280;38839;45.186;5.720;2023-04-06T01:19:13;99393.06;;;6.11;53.59
52975;BME280;38839;45.186;5.720;2023-04-06T01:21:39;99396.41;;;6.03;53.98
52975;BME280;38839;45.186;5.720;2023-04-06T01:24:05;99396.16;;;5.94;54.27
52975;BME280;38839;45.186;5.720;2023-04-06T01:26:31;99388.41;;;5.93;54.27
52975;BME280;38839;45.186;5.720;2023-04-06T01:28:57;99390.19;;;5.95;53.93
52975;BME280;38839;45.186;5.720;2023-04-06T01:31:24;99391.81;;;5.92;54.04
52975;BME280;38839;45.186;5.720;2023-04-06T01:33:50;99392.69;;;5.92;54.10
52975;BME280;38839;45.186;5.720;2023-04-06T01:36:16;99399.47;;;5.85;54.43
52975;BME280;38839;45.186;5.720;2023-04-06T01:38:42;99397.69;;;5.83;54.59
52975;BME280;38839;45.186;5.720;2023-04-06T01:41:08;99396.00;;;5.85;54.72
52975;BME280;38839;45.186;5.720;2023-04-06T01:43:33;99395.16;;;5.86;54.49
52975;BME280;38839;45.186;5.720;2023-04-06T01:45:59;99398.63;;;5.87;54.66
52975;BME280;38839;45.186;5.720;2023-04-06T01:48:26;99395.09;;;5.83;55.10
52975;BME280;38839;45.186;5.720;2023-04-06T01:50:51;99388.91;;;5.75;55.32
52975;BME280;38839;45.186;5.720;2023-04-06T01:53:16;99396.63;;;5.73;55.22
52975;BME280;38839;45.186;5.720;2023-04-06T01:55:42;99389.78;;;5.75;55.10
52975;BME280;38839;45.186;5.720;2023-04-06T01:58:07;99389.78;;;5.75;55.21
52975;BME280;38839;45.186;5.720;2023-04-06T02:00:33;99394.13;;;5.76;54.95
52975;BME280;38839;45.186;5.720;2023-04-06T02:02:58;99392.34;;;5.75;55.09
52975;BME280;38839;45.186;5.720;2023-04-06T02:05:25;99393.09;;;5.70;55.39
52975;BME280;38839;45.186;5.720;2023-04-06T02:07:50;99404.34;;;5.72;55.39
52975;BME280;38839;45.186;5.720;2023-04-06T02:10:16;99397.50;;;5.72;55.57
52975;BME280;38839;45.186;5.720;2023-04-06T02:12:42;99401.69;;;5.67;55.93
52975;BME280;38839;45.186;5.720;2023-04-06T02:15:07;99398.88;;;5.56;56.13
52975;BME280;38839;45.186;5.720;2023-04-06T02:17:33;99391.91;;;5.52;56.05
52975;BME280;38839;45.186;5.720;2023-04-06T02:19:58;99398.78;;;5.52;56.33
52975;BME280;38839;45.186;5.720;2023-04-06T02:22:24;99393.56;;;5.50;56.02
52975;BME280;38839;45.186;5.720;2023-04-06T02:24:49;99402.38;;;5.58;55.87
52975;BME280;38839;45.186;5.720;2023-04-06T02:27:15;99403.97;;;5.53;56.00
52975;BME280;38839;45.186;5.720;2023-04-06T02:29:41;99393.72;;;5.56;55.92
52975;BME280;38839;45.186;5.720;2023-04-06T02:32:06;99391.13;;;5.56;56.10
52975;BME280;38839;45.186;5.720;2023-04-06T02:34:32;99400.59;;;5.56;56.06
52975;BME280;38839;45.186;5.720;2023-04-06T02:36:57;99398.75;;;5.50;56.25
52975;BME280;38839;45.186;5.720;2023-04-06T02:39:23;99395.31;;;5.51;55.97
52975;BME280;38839;45.186;5.720;2023-04-06T02:41:48;99396.94;;;5.46;56.11
52975;BME280;38839;45.186;5.720;2023-04-06T02:44:14;99397.75;;;5.45;56.18
52975;BME280;38839;45.186;5.720;2023-04-06T02:46:39;99392.59;;;5.45;56.32
52975;BME280;38839;45.186;5.720;2023-04-06T02:49:05;99401.22;;;5.44;55.92
52975;BME280;38839;45.186;5.720;2023-04-06T02:51:30;99399.34;;;5.38;56.18
52975;BME280;38839;45.186;5.720;2023-04-06T02:53:56;99407.16;;;5.40;56.56
52975;BME280;38839;45.186;5.720;2023-04-06T02:56:21;99398.50;;;5.38;56.71
52975;BME280;38839;45.186;5.720;2023-04-06T02:58:47;99399.25;;;5.34;56.58
52975;BME280;38839;45.186;5.720;2023-04-06T03:01:13;99404.34;;;5.31;56.79
52975;BME280;38839;45.186;5.720;2023-04-06T03:03:38;99399.13;;;5.28;57.04
52975;BME280;38839;45.186;5.720;2023-04-06T03:06:04;99402.44;;;5.22;57.02
52975;BME280;38839;45.186;5.720;2023-04-06T03:08:29;99400.81;;;5.26;57.36
52975;BME280;38839;45.186;5.720;2023-04-06T03:10:55;99397.13;;;5.16;57.73
52975;BME280;38839;45.186;5.720;2023-04-06T03:13:21;99400.63;;;5.18;57.48
52975;BME280;38839;45.186;5.720;2023-04-06T03:15:46;99401.44;;;5.15;57.33
52975;BME280;38839;45.186;5.720;2023-04-06T03:18:12;99409.19;;;5.15;57.57
52975;BME280;38839;45.186;5.720;2023-04-06T03:20:37;99404.00;;;5.14;57.86
52975;BME280;38839;45.186;5.720;2023-04-06T03:23:02;99407.34;;;5.10;57.78
52975;BME280;38839;45.186;5.720;2023-04-06T03:25:28;99402.16;;;5.10;57.82
52975;BME280;38839;45.186;5.720;2023-04-06T03:27:55;99415.91;;;5.07;58.04
52975;BME280;38839;45.186;5.720;2023-04-06T03:30:21;99409.84;;;5.05;57.99
52975;BME280;38839;45.186;5.720;2023-04-06T03:32:46;99404.56;;;5.02;58.35
52975;BME280;38839;45.186;5.720;2023-04-06T03:35:11;99408.75;;;4.95;58.65
52975;BME280;38839;45.186;5.720;2023-04-06T03:37:37;99412.19;;;4.96;58.89
52975;BME280;38839;45.186;5.720;2023-04-06T03:40:03;99411.28;;;4.94;58.95
52975;BME280;38839;45.186;5.720;2023-04-06T03:42:29;99406.19;;;4.97;58.91
52975;BME280;38839;45.186;5.720;2023-04-06T03:44:54;99407.09;;;4.99;58.99
52975;BME280;38839;45.186;5.720;2023-04-06T03:47:20;99406.34;;;5.03;58.89
52975;BME280;38839;45.186;5.720;2023-04-06T03:49:47;99410.75;;;5.07;58.96
52975;BME280;38839;45.186;5.720;2023-04-06T03:52:12;99409.84;;;5.05;58.88
52975;BME280;38839;45.186;5.720;2023-04-06T03:54:38;99404.72;;;5.08;58.65
52975;BME280;38839;45.186;5.720;2023-04-06T03:57:04;99405.56;;;5.07;58.43
52975;BME280;38839;45.186;5.720;2023-04-06T03:59:29;99414.13;;;5.04;58.88
52975;BME280;38839;45.186;5.720;2023-04-06T04:01:55;99409.75;;;5.02;58.61
52975;BME280;38839;45.186;5.720;2023-04-06T04:04:20;99421.91;;;5.06;58.63
52975;BME280;38839;45.186;5.720;2023-04-06T04:06:46;99419.94;;;4.96;58.75
52975;BME280;38839;45.186;5.720;2023-04-06T04:09:11;99425.13;;;4.96;58.68
52975;BME280;38839;45.186;5.720;2023-04-06T04:11:37;99421.75;;;5.00;58.64
52975;BME280;38839;45.186;5.720;2023-04-06T04:14:02;99420.91;;;4.99;58.60
52975;BME280;38839;45.186;5.720;2023-04-06T04:16:28;99431.97;;;4.94;58.72
52975;BME280;38839;45.186;5.720;2023-04-06T04:18:54;99436.31;;;4.95;58.58
52975;BME280;38839;45.186;5.720;2023-04-06T04:21:19;99439.47;;;4.83;59.18
52975;BME280;38839;45.186;5.720;2023-04-06T04:23:45;99434.25;;;4.81;58.92
52975;BME280;38839;45.186;5.720;2023-04-06T04:26:10;99438.75;;;4.89;58.71
52975;BME280;38839;45.186;5.720;2023-04-06T04:28:36;99436.22;;;4.90;58.65
52975;BME280;38839;45.186;5.720;2023-04-06T04:31:01;99446.34;;;4.82;59.18
52975;BME280;38839;45.186;5.720;2023-04-06T04:33:27;99443.78;;;4.82;58.89
52975;BME280;38839;45.186;5.720;2023-04-06T04:35:52;99454.00;;;4.79;59.20
52975;BME280;38839;45.186;5.720;2023-04-06T04:38:17;99453.72;;;4.67;59.30
52975;BME280;38839;45.186;5.720;2023-04-06T04:40:43;99448.69;;;4.73;59.31
52975;BME280;38839;45.186;5.720;2023-04-06T04:43:08;99455.38;;;4.65;59.12
52975;BME280;38839;45.186;5.720;2023-04-06T04:45:34;99454.56;;;4.66;59.47
52975;BME280;38839;45.186;5.720;2023-04-06T04:47:59;99455.44;;;4.67;59.20
52975;BME280;38839;45.186;5.720;2023-04-06T04:50:25;99462.06;;;4.57;59.51
52975;BME280;38839;45.186;5.720;2023-04-06T04:52:50;99470.50;;;4.50;59.74
52975;BME280;38839;45.186;5.720;2023-04-06T04:55:16;99458.56;;;4.55;59.67
52975;BME280;38839;45.186;5.720;2023-04-06T04:57:42;99466.31;;;4.55;59.73
52975;BME280;38839;45.186;5.720;2023-04-06T05:00:08;99470.56;;;4.53;59.77
52975;BME280;38839;45.186;5.720;2023-04-06T05:02:34;99474.00;;;4.52;59.92
52975;BME280;38839;45.186;5.720;2023-04-06T05:04:59;99480.75;;;4.47;59.99
52975;BME280;38839;45.186;5.720;2023-04-06T05:07:25;99478.84;;;4.39;60.27
52975;BME280;38839;45.186;5.720;2023-04-06T05:09:50;99470.41;;;4.47;60.11
52975;BME280;38839;45.186;5.720;2023-04-06T05:12:16;99477.25;;;4.44;60.64
52975;BME280;38839;45.186;5.720;2023-04-06T05:31:17;99495.69;;;4.92;58.95
52975;BME280;38839;45.186;5.720;2023-04-06T05:33:43;99499.44;;;5.03;58.61
52975;BME280;38839;45.186;5.720;2023-04-06T05:36:08;99496.94;;;5.08;58.72
52975;BME280;38839;45.186;5.720;2023-04-06T05:38:34;99496.13;;;5.10;58.89
52975;BME280;38839;45.186;5.720;2023-04-06T05:40:59;99496.44;;;5.22;58.68
52975;BME280;38839;45.186;5.720;2023-04-06T05:43:25;99492.88;;;5.17;58.48
52975;BME280;38839;45.186;5.720;2023-04-06T05:45:50;99498.25;;;5.25;58.42
52975;BME280;38839;45.186;5.720;2023-04-06T05:48:15;99501.59;;;5.22;58.80
52975;BME280;38839;45.186;5.720;2023-04-06T05:50:41;99507.78;;;5.28;58.57
52975;BME280;38839;45.186;5.720;2023-04-06T05:53:06;99503.72;;;5.39;58.17
52975;BME280;38839;45.186;5.720;2023-04-06T05:55:32;99503.81;;;5.42;58.31
52975;BME280;38839;45.186;5.720;2023-04-06T05:57:57;99497.00;;;5.47;58.34
52975;BME280;38839;45.186;5.720;2023-04-06T06:00:22;99504.84;;;5.50;58.19
52975;BME280;38839;45.186;5.720;2023-04-06T06:02:48;99507.41;;;5.49;58.03
52975;BME280;38839;45.186;5.720;2023-04-06T06:05:13;99514.44;;;5.54;58.23
52975;BME280;38839;45.186;5.720;2023-04-06T06:07:39;99515.38;;;5.58;58.21
52975;BME280;38839;45.186;5.720;2023-04-06T06:10:04;99511.22;;;5.64;57.87
52975;BME280;38839;45.186;5.720;2023-04-06T06:12:30;99508.72;;;5.69;57.93
52975;BME280;38839;45.186;5.720;2023-04-06T06:14:55;99517.34;;;5.70;57.91
52975;BME280;38839;45.186;5.720;2023-04-06T06:17:21;99505.44;;;5.78;57.88
52975;BME280;38839;45.186;5.720;2023-04-06T06:19:47;99497.75;;;5.81;57.95
52975;BME280;38839;45.186;5.720;2023-04-06T06:22:12;99505.50;;;5.79;58.02
52975;BME280;38839;45.186;5.720;2023-04-06T06:24:38;99504.81;;;5.88;57.54
52975;BME280;38839;45.186;5.720;2023-04-06T06:27:03;99510.13;;;5.94;57.37
52975;BME280;38839;45.186;5.720;2023-04-06T06:29:29;99500.53;;;5.89;57.44
52975;BME280;38839;45.186;5.720;2023-04-06T06:31:54;99505.88;;;5.95;57.30
52975;BME280;38839;45.186;5.720;2023-04-06T06:34:20;99504.31;;;6.04;56.97
52975;BME280;38839;45.186;5.720;2023-04-06T06:36:46;99510.66;;;6.19;56.42
52975;BME280;38839;45.186;5.720;2023-04-06T06:39:12;99508.22;;;6.27;56.48
52975;BME280;38839;45.186;5.720;2023-04-06T06:41:37;99503.19;;;6.34;56.33
52975;BME280;38839;45.186;5.720;2023-04-06T06:44:02;99497.84;;;6.27;56.00
52975;BME280;38839;45.186;5.720;2023-04-06T06:46:28;99500.84;;;6.47;55.75
52975;BME280;38839;45.186;5.720;2023-04-06T06:48:53;99501.00;;;6.56;55.36
52975;BME280;38839;45.186;5.720;2023-04-06T06:51:19;99496.94;;;6.70;55.07
52975;BME280;38839;45.186;5.720;2023-04-06T06:53:44;99496.28;;;6.82;54.67
52975;BME280;38839;45.186;5.720;2023-04-06T06:56:10;99497.84;;;6.72;54.66
52975;BME280;38839;45.186;5.720;2023-04-06T06:58:35;99499.84;;;6.87;54.43
52975;BME280;38839;45.186;5.720;2023-04-06T07:01:01;99505.41;;;6.60;54.50
52975;BME280;38839;45.186;5.720;2023-04-06T07:03:26;99501.00;;;6.56;54.75
52975;BME280;38839;45.186;5.720;2023-04-06T07:05:52;99500.47;;;6.74;54.50
52975;BME280;38839;45.186;5.720;2023-04-06T07:08:21;99500.81;;;6.94;53.79
52975;BME280;38839;45.186;5.720;2023-04-06T07:10:47;99503.47;;;6.97;53.91
52975;BME280;38839;45.186;5.720;2023-04-06T07:13:13;99491.78;;;7.23;53.10
52975;BME280;38839;45.186;5.720;2023-04-06T07:15:43;99496.25;;;7.34;53.23
52975;BME280;38839;45.186;5.720;2023-04-06T07:18:08;99488.81;;;7.55;52.58
52975;BME280;38839;45.186;5.720;2023-04-06T07:20:34;99489.09;;;7.77;51.97
52975;BME280;38839;45.186;5.720;2023-04-06T07:22:59;99495.72;;;7.53;52.50
52975;BME280;38839;45.186;5.720;2023-04-06T07:25:25;99489.19;;;7.83;52.03
52975;BME280;38839;45.186;5.720;2023-04-06T07:27:50;99489.31;;;7.92;51.56
52975;BME280;38839;45.186;5.720;2023-04-06T07:30:16;99488.56;;;8.01;51.53
52975;BME280;38839;45.186;5.720;2023-04-06T07:32:41;99489.22;;;7.86;51.60
52975;BME280;38839;45.186;5.720;2023-04-06T07:35:07;99482.63;;;8.13;51.10
52975;BME280;38839;45.186;5.720;2023-04-06T07:37:32;99482.00;;;8.34;50.81
52975;BME280;38839;45.186;5.720;2023-04-06T07:39:57;99477.50;;;8.19;50.91
52975;BME280;38839;45.186;5.720;2023-04-06T07:42:23;99477.75;;;8.40;50.47
52975;BME280;38839;45.186;5.720;2023-04-06T07:44:48;99477.84;;;8.46;50.48
52975;BME280;38839;45.186;5.720;2023-04-06T07:47:14;99479.75;;;8.63;50.18
52975;BME280;38839;45.186;5.720;2023-04-06T07:49:39;99483.28;;;8.71;49.99
52975;BME280;38839;45.186;5.720;2023-04-06T07:52:05;99483.34;;;8.74;49.67
52975;BME280;38839;45.186;5.720;2023-04-06T07:54:30;99488.53;;;8.74;49.62
52975;BME280;38839;45.186;5.720;2023-04-06T07:56:56;99478.13;;;8.74;49.81
52975;BME280;38839;45.186;5.720;2023-04-06T07:59:21;99488.66;;;8.86;49.30
52975;BME280;38839;45.186;5.720;2023-04-06T08:01:46;99483.50;;;8.93;49.01
52975;BME280;38839;45.186;5.720;2023-04-06T08:04:12;99487.78;;;8.88;48.81
52975;BME280;38839;45.186;5.720;2023-04-06T08:06:37;99479.22;;;8.99;49.25
52975;BME280;38839;45.186;5.720;2023-04-06T08:09:03;99480.31;;;9.31;48.22
52975;BME280;38839;45.186;5.720;2023-04-06T08:11:29;99477.84;;;9.49;47.33
52975;BME280;38839;45.186;5.720;2023-04-06T08:13:54;99477.09;;;9.69;45.79
52975;BME280;38839;45.186;5.720;2023-04-06T08:16:22;99473.75;;;9.94;46.10
52975;BME280;38839;45.186;5.720;2023-04-06T08:18:49;99478.31;;;10.49;45.13
52975;BME280;38839;45.186;5.720;2023-04-06T08:21:15;99472.28;;;10.79;44.02
52975;BME280;38839;45.186;5.720;2023-04-06T08:23:40;99474.91;;;11.01;43.58
52975;BME280;38839;45.186;5.720;2023-04-06T08:26:06;99479.25;;;11.25;42.78
52975;BME280;38839;45.186;5.720;2023-04-06T08:28:31;99477.50;;;11.55;42.01
52975;BME280;38839;45.186;5.720;2023-04-06T08:30:57;99480.91;;;11.80;41.43
52975;BME280;38839;45.186;5.720;2023-04-06T08:33:23;99481.75;;;11.88;41.56
52975;BME280;38839;45.186;5.720;2023-04-06T08:35:48;99475.75;;;11.43;41.37
52975;BME280;38839;45.186;5.720;2023-04-06T08:38:13;99473.06;;;11.91;40.44
52975;BME280;38839;45.186;5.720;2023-04-06T08:40:39;99474.66;;;12.27;39.59
52975;BME280;38839;45.186;5.720;2023-04-06T08:43:09;99472.84;;;12.40;38.90
52975;BME280;38839;45.186;5.720;2023-04-06T08:45:38;99470.44;;;11.83;39.61
52975;BME280;38839;45.186;5.720;2023-04-06T08:48:04;99475.72;;;11.67;39.86
52975;BME280;38839;45.186;5.720;2023-04-06T08:50:32;99476.66;;;11.33;40.59
52975;BME280;38839;45.186;5.720;2023-04-06T08:52:59;99476.63;;;11.50;40.54
52975;BME280;38839;45.186;5.720;2023-04-06T08:55:25;99475.66;;;11.86;40.13
52975;BME280;38839;45.186;5.720;2023-04-06T08:57:50;99477.44;;;11.72;40.16
52975;BME280;38839;45.186;5.720;2023-04-06T09:00:20;99476.56;;;11.76;40.50
52975;BME280;38839;45.186;5.720;2023-04-06T09:02:47;99474.78;;;11.87;39.81
52975;BME280;38839;45.186;5.720;2023-04-06T09:05:14;99471.34;;;11.60;39.47
52975;BME280;38839;45.186;5.720;2023-04-06T09:07:41;99473.16;;;11.41;39.59
52975;BME280;38839;45.186;5.720;2023-04-06T09:10:07;99475.69;;;11.71;39.96
52975;BME280;38839;45.186;5.720;2023-04-06T09:12:33;99472.25;;;11.58;40.13
52975;BME280;38839;45.186;5.720;2023-04-06T09:14:59;99467.88;;;11.61;40.03
52975;BME280;38839;45.186;5.720;2023-04-06T09:17:29;99467.03;;;11.55;39.63
52975;BME280;38839;45.186;5.720;2023-04-06T09:19:56;99464.31;;;12.01;39.23
52975;BME280;38839;45.186;5.720;2023-04-06T09:22:22;99458.88;;;12.42;38.87
52975;BME280;38839;45.186;5.720;2023-04-06T09:24:49;99457.94;;;12.56;39.27
52975;BME280;38839;45.186;5.720;2023-04-06T09:27:14;99462.44;;;12.27;38.15
52975;BME280;38839;45.186;5.720;2023-04-06T09:29:41;99460.88;;;11.73;38.87
52975;BME280;38839;45.186;5.720;2023-04-06T09:32:11;99456.53;;;11.62;38.96
52975;BME280;38839;45.186;5.720;2023-04-06T09:34:38;99453.06;;;11.70;39.69
52975;BME280;38839;45.186;5.720;2023-04-06T09:37:13;99451.00;;;12.42;38.50
52975;BME280;38839;45.186;5.720;2023-04-06T09:39:39;99446.56;;;12.58;38.31
52975;BME280;38839;45.186;5.720;2023-04-06T09:42:05;99442.88;;;12.87;38.01
52975;BME280;38839;45.186;5.720;2023-04-06T09:44:31;99447.41;;;12.62;38.40
52975;BME280;38839;45.186;5.720;2023-04-06T09:46:56;99440.44;;;12.64;38.18
52975;BME280;38839;45.186;5.720;2023-04-06T09:49:22;99439.72;;;12.34;37.74
52975;BME280;38839;45.186;5.720;2023-04-06T09:51:55;99442.50;;;12.08;37.35
52975;BME280;38839;45.186;5.720;2023-04-06T09:54:23;99442.47;;;12.13;37.42
52975;BME280;38839;45.186;5.720;2023-04-06T09:56:58;99439.66;;;12.46;37.40
52975;BME280;38839;45.186;5.720;2023-04-06T10:01:58;99431.81;;;12.50;38.29
52975;BME280;38839;45.186;5.720;2023-04-06T10:07:00;99422.22;;;12.47;38.33
52975;BME280;38839;45.186;5.720;2023-04-06T10:09:28;99426.31;;;12.85;37.88
52975;BME280;38839;45.186;5.720;2023-04-06T10:12:02;99425.97;;;13.20;37.59
52975;BME280;38839;45.186;5.720;2023-04-06T10:14:28;99427.09;;;12.95;37.38
52975;BME280;38839;45.186;5.720;2023-04-06T10:16:54;99419.50;;;12.64;37.41
52975;BME280;38839;45.186;5.720;2023-04-06T10:19:26;99416.00;;;12.59;36.99
52975;BME280;38839;45.186;5.720;2023-04-06T10:21:54;99417.53;;;12.91;36.90
52975;BME280;38839;45.186;5.720;2023-04-06T10:24:21;99416.78;;;12.76;36.88
52975;BME280;38839;45.186;5.720;2023-04-06T10:27:02;99413.19;;;12.88;36.31
52975;BME280;38839;45.186;5.720;2023-04-06T10:29:28;99407.81;;;13.02;36.58
52975;BME280;38839;45.186;5.720;2023-04-06T10:31:53;99412.16;;;13.06;36.50
52975;BME280;38839;45.186;5.720;2023-04-06T10:34:20;99410.38;;;13.08;36.23
52975;BME280;38839;45.186;5.720;2023-04-06T10:36:46;99406.19;;;12.90;36.52
52975;BME280;38839;45.186;5.720;2023-04-06T10:39:11;99408.66;;;13.04;36.46
52975;BME280;38839;45.186;5.720;2023-04-06T10:41:44;99409.63;;;12.97;36.13
52975;BME280;38839;45.186;5.720;2023-04-06T10:44:20;99409.56;;;13.03;36.18
52975;BME280;38839;45.186;5.720;2023-04-06T10:46:57;99402.56;;;13.05;35.96
52975;BME280;38839;45.186;5.720;2023-04-06T10:49:25;99397.28;;;13.09;36.10
52975;BME280;38839;45.186;5.720;2023-04-06T10:51:55;99396.31;;;13.21;36.05
52975;BME280;38839;45.186;5.720;2023-04-06T10:54:21;99398.06;;;13.18;36.27
52975;BME280;38839;45.186;5.720;2023-04-06T10:56:49;99391.97;;;13.19;36.17
52975;BME280;38839;45.186;5.720;2023-04-06T10:59:21;99398.06;;;13.16;35.96
52975;BME280;38839;45.186;5.720;2023-04-06T11:01:47;99387.59;;;13.16;36.07
52975;BME280;38839;45.186;5.720;2023-04-06T11:04:19;99374.41;;;13.30;35.98
52975;BME280;38839;45.186;5.720;2023-04-06T11:06:49;99382.06;;;13.50;35.53
52975;BME280;38839;45.186;5.720;2023-04-06T11:09:24;99373.22;;;13.57;34.98
52975;BME280;38839;45.186;5.720;2023-04-06T11:11:50;99371.59;;;13.47;35.31
52975;BME280;38839;45.186;5.720;2023-04-06T11:14:15;99364.44;;;13.61;35.29
52975;BME280;38839;45.186;5.720;2023-04-06T11:16:41;99370.41;;;13.74;34.59
52975;BME280;38839;45.186;5.720;2023-04-06T11:19:07;99367.72;;;13.79;34.51
52975;BME280;38839;45.186;5.720;2023-04-06T11:24:15;99360.88;;;13.68;34.70
52975;BME280;38839;45.186;5.720;2023-04-06T11:26:46;99364.25;;;13.77;34.54
52975;BME280;38839;45.186;5.720;2023-04-06T11:29:15;99365.97;;;13.78;34.67
52975;BME280;38839;45.186;5.720;2023-04-06T11:31:44;99366.78;;;13.83;34.68
52975;BME280;38839;45.186;5.720;2023-04-06T11:34:12;99362.31;;;13.93;34.62
52975;BME280;38839;45.186;5.720;2023-04-06T11:36:41;99364.63;;;14.14;34.37
52975;BME280;38839;45.186;5.720;2023-04-06T11:39:08;99361.66;;;14.37;34.36
52975;BME280;38839;45.186;5.720;2023-04-06T11:41:33;99351.06;;;14.43;33.94
52975;BME280;38839;45.186;5.720;2023-04-06T11:44:01;99345.91;;;14.37;34.31
52975;BME280;38839;45.186;5.720;2023-04-06T11:46:28;99348.53;;;14.37;34.22
52975;BME280;38839;45.186;5.720;2023-04-06T11:48:58;99346.97;;;14.25;34.24
52975;BME280;38839;45.186;5.720;2023-04-06T11:51:24;99333.88;;;14.24;34.33
52975;BME280;38839;45.186;5.720;2023-04-06T11:53:49;99326.66;;;14.38;34.31
52975;BME280;38839;45.186;5.720;2023-04-06T11:56:28;99332.84;;;14.34;34.27
52975;BME280;38839;45.186;5.720;2023-04-06T11:58:55;99325.00;;;14.31;34.42
52975;BME280;38839;45.186;5.720;2023-04-06T12:01:21;99324.19;;;14.27;34.45
52975;BME280;38839;45.186;5.720;2023-04-06T12:03:47;99318.66;;;14.46;34.18
52975;BME280;38839;45.186;5.720;2023-04-06T12:06:14;99321.06;;;14.60;33.84
52975;BME280;38839;45.186;5.720;2023-04-06T12:08:40;99327.91;;;14.70;33.52
52975;BME280;38839;45.186;5.720;2023-04-06T12:11:06;99314.31;;;14.96;33.09
52975;BME280;38839;45.186;5.720;2023-04-06T12:13:31;99309.56;;;15.15;32.57
52975;BME280;38839;45.186;5.720;2023-04-06T12:15:57;99303.34;;;15.21;32.55
52975;BME280;38839;45.186;5.720;2023-04-06T12:18:22;99303.88;;;15.38;32.29
52975;BME280;38839;45.186;5.720;2023-04-06T12:20:47;99307.16;;;15.48;31.95
52975;BME280;38839;45.186;5.720;2023-04-06T12:23:13;99305.34;;;15.52;31.57
52975;BME280;38839;45.186;5.720;2023-04-06T12:25:42;99297.19;;;15.64;31.40
52975;BME280;38839;45.186;5.720;2023-04-06T12:28:08;99305.72;;;15.77;30.79
52975;BME280;38839;45.186;5.720;2023-04-06T12:30:34;99297.47;;;15.52;31.26
52975;BME280;38839;45.186;5.720;2023-04-06T12:33:00;99313.47;;;15.41;31.51
52975;BME280;38839;45.186;5.720;2023-04-06T12:35:26;99308.44;;;15.30;31.18
52975;BME280;38839;45.186;5.720;2023-04-06T12:37:52;99304.34;;;15.57;30.50
52975;BME280;38839;45.186;5.720;2023-04-06T12:40:17;99308.66;;;15.61;29.68
52975;BME280;38839;45.186;5.720;2023-04-06T12:42:43;99296.84;;;15.81;28.64
52975;BME280;38839;45.186;5.720;2023-04-06T12:45:09;99300.38;;;15.81;28.43
52975;BME280;38839;45.186;5.720;2023-04-06T12:47:35;99298.31;;;15.94;28.78
52975;BME280;38839;45.186;5.720;2023-04-06T12:50:02;99294.69;;;16.00;27.14
52975;BME280;38839;45.186;5.720;2023-04-06T12:52:27;99294.16;;;15.84;26.63
52975;BME280;38839;45.186;5.720;2023-04-06T12:54:55;99293.06;;;15.94;26.94
52975;BME280;38839;45.186;5.720;2023-04-06T12:57:21;99289.31;;;16.04;26.81
52975;BME280;38839;45.186;5.720;2023-04-06T12:59:47;99288.59;;;16.35;26.05
52975;BME280;38839;45.186;5.720;2023-04-06T13:02:13;99272.91;;;16.31;26.02
52975;BME280;38839;45.186;5.720;2023-04-06T13:04:38;99283.53;;;16.26;25.97
52975;BME280;38839;45.186;5.720;2023-04-06T13:07:04;99275.34;;;16.02;26.27
52975;BME280;38839;45.186;5.720;2023-04-06T13:09:30;99287.81;;;15.94;26.31
52975;BME280;38839;45.186;5.720;2023-04-06T13:11:55;99278.38;;;15.84;26.22
52975;BME280;38839;45.186;5.720;2023-04-06T13:14:21;99286.31;;;15.82;26.15
52975;BME280;38839;45.186;5.720;2023-04-06T13:16:47;99278.31;;;15.87;26.02
52975;BME280;38839;45.186;5.720;2023-04-06T13:19:12;99278.38;;;15.85;25.48
52975;BME280;38839;45.186;5.720;2023-04-06T13:21:39;99277.31;;;15.93;25.51
52975;BME280;38839;45.186;5.720;2023-04-06T13:24:04;99266.75;;;15.94;25.30
52975;BME280;38839;45.186;5.720;2023-04-06T13:26:30;99268.88;;;16.16;24.93